createdAt,value
2018-09-13T00:02:24.514Z,90.90
2018-09-13T00:04:52.965Z,90.90
2018-09-13T00:07:21.392Z,91.00
2018-09-13T00:09:49.865Z,91.10
2018-09-13T00:12:18.357Z,91.20
2018-09-13T00:14:46.868Z,91.10
2018-09-13T00:17:15.383Z,91.20
2018-09-13T00:19:43.767Z,90.90
2018-09-13T00:22:12.286Z,90.90
2018-09-13T00:24:40.836Z,90.70
2018-09-13T00:27:09.394Z,91.00
2018-09-13T00:29:37.965Z,91.20
2018-09-13T00:32:06.444Z,90.80
2018-09-13T00:34:34.884Z,91.00
2018-09-13T00:37:03.353Z,90.70
2018-09-13T00:39:31.836Z,90.90
2018-09-13T00:42:00.266Z,90.80
2018-09-13T00:44:28.711Z,91.10
2018-09-13T00:46:57.187Z,90.90
2018-09-13T00:49:25.728Z,90.60
2018-09-13T00:51:54.203Z,90.90
2018-09-13T00:54:22.624Z,91.30
2018-09-13T00:56:51.145Z,91.00
2018-09-13T00:59:19.529Z,91.00
2018-09-13T01:01:48.007Z,91.10
2018-09-13T01:04:16.600Z,91.30
2018-09-13T01:06:45.165Z,91.10
2018-09-13T01:09:13.663Z,91.20
2018-09-13T01:11:42.211Z,91.10
2018-09-13T01:14:10.624Z,91.30
2018-09-13T01:16:39.094Z,91.10
2018-09-13T01:19:08.024Z,91.20
2018-09-13T01:21:36.608Z,90.90
2018-09-13T01:24:05.113Z,91.00
2018-09-13T01:26:33.589Z,90.90
2018-09-13T01:29:02.101Z,90.70
2018-09-13T01:31:30.639Z,91.10
2018-09-13T01:33:59.132Z,91.00
2018-09-13T01:36:27.663Z,91.20
2018-09-13T01:38:56.197Z,90.70
2018-09-13T01:41:24.671Z,90.90
2018-09-13T01:43:53.433Z,90.90
2018-09-13T01:46:21.844Z,91.10
2018-09-13T01:48:50.280Z,90.90
2018-09-13T01:51:18.725Z,90.90
2018-09-13T01:53:47.184Z,90.70
2018-09-13T01:56:15.655Z,90.90
2018-09-13T01:58:44.082Z,91.10
2018-09-13T02:01:12.874Z,91.20
2018-09-13T02:03:41.419Z,91.40
2018-09-13T02:06:10.315Z,91.20
2018-09-13T02:08:39.109Z,91.10
2018-09-13T02:11:07.932Z,91.00
2018-09-13T02:13:36.339Z,91.10
2018-09-13T02:16:04.822Z,91.20
2018-09-13T02:18:33.268Z,91.30
2018-09-13T02:21:01.705Z,91.00
2018-09-13T02:23:30.205Z,91.20
2018-09-13T02:25:58.679Z,91.20
2018-09-13T02:28:27.104Z,90.80
2018-09-13T02:30:55.473Z,90.70
2018-09-13T02:33:23.951Z,90.70
2018-09-13T02:35:52.401Z,90.70
2018-09-13T02:38:20.921Z,90.40
2018-09-13T02:40:49.420Z,90.60
2018-09-13T02:43:18.243Z,90.60
2018-09-13T02:45:46.741Z,90.20
2018-09-13T02:48:15.198Z,90.60
2018-09-13T02:50:43.733Z,90.60
2018-09-13T02:53:12.337Z,90.70
2018-09-13T02:55:40.761Z,90.70
2018-09-13T02:58:09.556Z,90.50
2018-09-13T03:00:38.164Z,90.40
2018-09-13T03:03:07.717Z,90.60
2018-09-13T03:05:36.077Z,90.20
2018-09-13T03:08:04.574Z,90.60
2018-09-13T03:10:32.927Z,90.60
2018-09-13T03:13:01.450Z,90.80
2018-09-13T03:15:29.936Z,90.30
2018-09-13T03:17:58.392Z,90.60
2018-09-13T03:20:26.788Z,90.20
2018-09-13T03:22:55.188Z,90.50
2018-09-13T03:25:23.664Z,90.20
2018-09-13T03:27:52.132Z,90.50
2018-09-13T03:30:20.684Z,90.20
2018-09-13T03:32:49.084Z,90.50
2018-09-13T03:35:17.580Z,90.20
2018-09-13T03:37:46.057Z,90.30
2018-09-13T03:40:14.595Z,89.70
2018-09-13T03:42:43.219Z,90.10
2018-09-13T03:45:11.741Z,90.10
2018-09-13T03:47:40.153Z,90.30
2018-09-13T03:50:08.598Z,90.20
2018-09-13T03:52:37.153Z,90.10
2018-09-13T03:55:05.886Z,90.00
2018-09-13T03:57:34.437Z,90.60
2018-09-13T04:00:02.898Z,89.60
2018-09-13T04:02:31.324Z,90.20
2018-09-13T04:04:59.690Z,89.90
2018-09-13T04:07:28.103Z,89.40
2018-09-13T04:09:56.599Z,89.60
2018-09-13T04:12:25.005Z,89.40
2018-09-13T04:14:53.469Z,89.30
2018-09-13T04:17:21.943Z,89.90
2018-09-13T04:19:50.370Z,90.20
2018-09-13T04:22:18.897Z,90.00
2018-09-13T04:24:47.369Z,89.70
2018-09-13T04:27:15.845Z,90.10
2018-09-13T04:29:44.498Z,90.00
2018-09-13T04:32:13.125Z,90.10
2018-09-13T04:34:41.550Z,89.30
2018-09-13T04:37:10.499Z,89.60
2018-09-13T04:39:39.240Z,89.70
2018-09-13T04:42:07.689Z,89.50
2018-09-13T04:44:36.092Z,88.90
2018-09-13T04:47:04.657Z,88.90
2018-09-13T04:49:33.194Z,90.50
2018-09-13T04:52:01.789Z,89.70
2018-09-13T04:54:30.336Z,90.00
2018-09-13T04:56:58.934Z,90.00
2018-09-13T04:59:27.810Z,90.30
2018-09-13T05:01:56.305Z,90.10
2018-09-13T05:04:24.797Z,89.50
2018-09-13T05:06:53.317Z,89.50
2018-09-13T05:09:21.825Z,89.80
2018-09-13T05:11:50.750Z,90.20
2018-09-13T05:14:19.602Z,89.80
2018-09-13T05:16:48.161Z,90.00
2018-09-13T05:19:16.677Z,90.30
2018-09-13T05:21:45.168Z,89.20
2018-09-13T05:24:13.725Z,89.90
2018-09-13T05:26:42.523Z,89.70
2018-09-13T05:29:11.034Z,89.90
2018-09-13T05:31:39.535Z,88.70
2018-09-13T05:34:07.963Z,90.00
2018-09-13T05:36:36.574Z,90.40
2018-09-13T05:39:07.817Z,90.60
2018-09-13T05:41:36.415Z,90.70
2018-09-13T05:44:04.997Z,91.00
2018-09-13T05:46:33.468Z,90.70
2018-09-13T05:49:01.961Z,91.00
2018-09-13T05:51:30.658Z,91.10
2018-09-13T05:53:59.242Z,91.00
2018-09-13T05:56:27.696Z,90.90
2018-09-13T05:58:56.833Z,91.00
2018-09-13T06:01:25.330Z,91.00
2018-09-13T06:03:53.798Z,91.10
2018-09-13T06:06:22.255Z,91.20
2018-09-13T06:08:50.997Z,91.00
2018-09-13T06:11:19.472Z,90.90
2018-09-13T06:13:48.316Z,91.20
2018-09-13T06:16:16.840Z,91.30
2018-09-13T06:18:45.326Z,91.00
2018-09-13T06:21:14.024Z,91.20
2018-09-13T06:23:42.548Z,91.20
2018-09-13T06:26:10.929Z,91.20
2018-09-13T06:28:39.391Z,91.30
2018-09-13T06:31:07.746Z,91.40
2018-09-13T06:33:36.216Z,91.40
2018-09-13T06:36:04.670Z,91.40
2018-09-13T06:38:33.200Z,91.30
2018-09-13T06:41:01.910Z,91.30
2018-09-13T06:43:30.972Z,91.40
2018-09-13T06:45:59.436Z,91.50
2018-09-13T06:48:27.862Z,91.50
2018-09-13T06:50:56.565Z,91.40
2018-09-13T06:53:25.136Z,91.40
2018-09-13T06:55:53.656Z,91.50
2018-09-13T06:58:22.198Z,91.30
2018-09-13T07:00:50.813Z,91.20
2018-09-13T07:03:19.327Z,91.10
2018-09-13T07:05:57.337Z,91.10
2018-09-13T07:08:25.866Z,91.10
2018-09-13T07:10:55.290Z,91.00
2018-09-13T07:13:24.067Z,91.00
2018-09-13T07:15:52.836Z,91.20
2018-09-13T07:18:21.560Z,91.00
2018-09-13T07:20:50.342Z,91.00
2018-09-13T07:23:18.971Z,90.70
2018-09-13T07:25:55.845Z,90.60
2018-09-13T07:28:24.554Z,90.60
2018-09-13T07:30:53.161Z,90.50
2018-09-13T07:33:21.619Z,90.60
2018-09-13T07:35:50.077Z,90.50
2018-09-13T07:38:18.888Z,90.30
2018-09-13T07:40:47.538Z,90.10
2018-09-13T07:43:15.973Z,89.80
2018-09-13T07:45:44.869Z,89.70
2018-09-13T07:48:13.437Z,90.00
2018-09-13T07:50:41.920Z,89.60
2018-09-13T07:53:10.616Z,89.30
2018-09-13T07:55:39.164Z,89.80
2018-09-13T07:58:08.645Z,89.50
2018-09-13T08:00:37.089Z,88.80
2018-09-13T08:03:05.777Z,88.80
2018-09-13T08:05:34.288Z,89.00
2018-09-13T08:08:02.806Z,88.70
2018-09-13T08:10:31.283Z,87.80
2018-09-13T08:13:00.136Z,88.10
2018-09-13T08:15:28.686Z,87.20
2018-09-13T08:17:57.256Z,87.50
2018-09-13T08:20:26.625Z,87.40
2018-09-13T08:22:55.769Z,86.00
2018-09-13T08:25:24.330Z,86.40
2018-09-13T08:27:52.961Z,85.70
2018-09-13T08:30:21.502Z,85.50
2018-09-13T08:32:50.126Z,86.00
2018-09-13T08:35:18.664Z,86.70
2018-09-13T08:37:47.313Z,86.60
2018-09-13T08:40:15.894Z,86.80
2018-09-13T08:42:45.744Z,86.50
2018-09-13T08:45:14.209Z,86.20
2018-09-13T08:47:42.794Z,84.50
2018-09-13T08:50:21.290Z,84.60
2018-09-13T08:52:57.237Z,85.30
2018-09-13T08:55:25.678Z,84.80
2018-09-13T08:57:57.907Z,81.20
2018-09-13T09:00:26.563Z,80.90
2018-09-13T09:02:55.121Z,81.90
2018-09-13T09:05:29.318Z,82.80
2018-09-13T09:07:57.896Z,83.00
2018-09-13T09:10:26.740Z,83.30
2018-09-13T09:12:55.536Z,82.90
2018-09-13T09:15:24.115Z,82.50
2018-09-13T09:17:52.606Z,82.70
2018-09-13T09:20:21.002Z,82.80
2018-09-13T09:22:49.667Z,83.30
2018-09-13T09:25:18.400Z,82.30
2018-09-13T09:27:46.991Z,82.00
2018-09-13T09:30:15.485Z,81.20
2018-09-13T09:32:45.269Z,78.80
2018-09-13T09:35:13.797Z,77.50
2018-09-13T09:37:42.367Z,76.40
2018-09-13T09:40:10.924Z,77.10
2018-09-13T09:42:39.548Z,76.40
2018-09-13T09:45:08.245Z,76.60
2018-09-13T09:47:36.781Z,75.20
2018-09-13T09:50:05.767Z,76.00
2018-09-13T09:52:34.272Z,75.50
2018-09-13T09:55:02.731Z,74.70
2018-09-13T09:57:31.289Z,72.90
2018-09-13T09:59:59.773Z,73.70
2018-09-13T10:02:28.416Z,74.10
2018-09-13T10:04:56.860Z,69.60
2018-09-13T10:07:25.755Z,71.40
2018-09-13T10:09:54.210Z,71.20
2018-09-13T10:12:23.010Z,70.70
2018-09-13T10:14:57.309Z,73.30
2018-09-13T10:17:31.184Z,72.30
2018-09-13T10:20:05.267Z,72.40
2018-09-13T10:22:39.231Z,68.20
2018-09-13T10:25:13.159Z,69.70
2018-09-13T10:27:47.050Z,67.10
2018-09-13T10:30:21.073Z,67.90
2018-09-13T10:32:55.043Z,68.80
2018-09-13T10:35:30.740Z,68.60
2018-09-13T10:38:04.494Z,68.70
2018-09-13T10:40:40.033Z,68.90
2018-09-13T10:43:13.814Z,68.40
2018-09-13T10:45:49.677Z,70.00
2018-09-13T10:48:23.548Z,70.00
2018-09-13T10:51:00.992Z,67.80
2018-09-13T10:53:32.104Z,68.50
2018-09-13T10:56:00.699Z,68.80
2018-09-13T10:58:29.366Z,67.90
2018-09-13T11:00:58.956Z,66.20
2018-09-13T11:03:28.019Z,66.00
2018-09-13T11:05:56.997Z,66.40
2018-09-13T11:08:25.578Z,65.50
2018-09-13T11:10:54.351Z,65.80
2018-09-13T11:13:50.860Z,61.60
2018-09-13T11:16:20.305Z,62.20
2018-09-13T11:18:48.780Z,59.90
2018-09-13T11:21:17.305Z,59.70
2018-09-13T11:23:45.789Z,58.20
2018-09-13T11:26:14.512Z,60.20
2018-09-13T11:28:43.084Z,56.90
2018-09-13T11:31:11.976Z,57.50
2018-09-13T11:33:40.476Z,53.90
2018-09-13T11:36:09.925Z,54.70
2018-09-13T11:38:38.409Z,52.80
2018-09-13T11:41:07.095Z,53.90
2018-09-13T11:43:35.615Z,56.80
2018-09-13T11:46:04.160Z,57.10
2018-09-13T11:48:32.767Z,59.20
2018-09-13T11:51:01.212Z,58.20
2018-09-13T11:53:29.728Z,56.90
2018-09-13T11:55:58.264Z,55.00
2018-09-13T11:58:26.750Z,55.30
2018-09-13T12:00:55.337Z,56.40
2018-09-13T12:03:23.877Z,56.80
2018-09-13T12:05:52.356Z,54.90
2018-09-13T12:08:20.886Z,55.70
2018-09-13T12:10:50.002Z,53.50
2018-09-13T12:13:18.720Z,53.00
2018-09-13T12:15:47.333Z,54.10
2018-09-13T12:18:16.004Z,52.60
2018-09-13T12:20:44.565Z,52.80
2018-09-13T12:23:13.484Z,51.00
2018-09-13T12:25:42.044Z,51.90
2018-09-13T12:28:10.616Z,49.80
2018-09-13T12:30:39.186Z,51.10
2018-09-13T12:33:07.775Z,49.80
2018-09-13T12:35:37.209Z,49.50
2018-09-13T12:38:06.012Z,50.00
2018-09-13T12:40:34.552Z,46.20
2018-09-13T12:43:03.177Z,47.60
2018-09-13T12:45:35.093Z,47.30
2018-09-13T12:48:04.705Z,48.40
2018-09-13T12:50:33.480Z,50.10
2018-09-13T12:53:02.053Z,49.40
2018-09-13T12:55:36.374Z,49.90
2018-09-13T12:58:04.991Z,50.70
2018-09-13T13:00:34.694Z,51.00
2018-09-13T13:03:03.557Z,51.90
2018-09-13T13:05:32.335Z,52.70
2018-09-13T13:08:00.941Z,49.70
2018-09-13T13:10:29.621Z,48.70
2018-09-13T13:12:58.176Z,49.40
2018-09-13T13:15:26.909Z,50.00
2018-09-13T13:17:56.114Z,46.40
2018-09-13T13:20:34.283Z,46.30
2018-09-13T13:23:13.724Z,47.70
2018-09-13T13:25:42.375Z,47.80
2018-09-13T13:28:10.989Z,46.60
2018-09-13T13:30:39.657Z,46.40
2018-09-13T13:33:08.285Z,48.20
2018-09-13T13:35:36.908Z,45.90
2018-09-13T13:40:55.055Z,46.00
2018-09-13T13:43:23.634Z,46.60
2018-09-13T13:45:52.072Z,46.70
2018-09-13T13:48:20.498Z,43.50
2018-09-13T13:50:49.184Z,45.50
2018-09-13T13:53:17.633Z,47.00
2018-09-13T13:55:46.047Z,45.10
2018-09-13T13:58:14.669Z,43.40
2018-09-13T14:00:43.237Z,42.40
2018-09-13T14:03:14.136Z,46.40
2018-09-13T14:05:42.692Z,44.30
2018-09-13T14:08:11.142Z,46.20
2018-09-13T14:10:39.778Z,46.30
2018-09-13T14:13:08.304Z,46.60
2018-09-13T14:15:36.837Z,46.50
2018-09-13T14:18:05.764Z,46.50
2018-09-13T14:20:34.342Z,45.90
2018-09-13T14:23:02.730Z,45.80
2018-09-13T14:25:31.159Z,46.40
2018-09-13T14:27:59.720Z,47.60
2018-09-13T14:30:28.441Z,47.20
2018-09-13T14:32:57.036Z,46.20
2018-09-13T14:35:25.653Z,46.10
2018-09-13T14:37:54.153Z,47.10
2018-09-13T14:40:23.649Z,47.30
2018-09-13T14:42:52.164Z,46.80
2018-09-13T14:45:20.592Z,46.20
2018-09-13T14:47:49.856Z,45.80
2018-09-13T14:50:18.339Z,46.60
2018-09-13T14:52:46.798Z,48.50
2018-09-13T14:55:15.259Z,47.30
2018-09-13T14:57:43.853Z,47.30
2018-09-13T15:00:12.406Z,49.00
2018-09-13T15:02:41.209Z,46.80
2018-09-13T15:05:09.821Z,47.00
2018-09-13T15:07:38.287Z,47.20
2018-09-13T15:10:06.849Z,49.60
2018-09-13T15:12:35.340Z,51.10
2018-09-13T15:15:03.962Z,50.70
2018-09-13T15:17:32.576Z,50.70
2018-09-13T15:20:01.032Z,49.60
2018-09-13T15:22:29.565Z,49.50
2018-09-13T15:24:58.126Z,50.90
2018-09-13T15:27:26.626Z,51.70
2018-09-13T15:29:55.401Z,50.80
2018-09-13T15:32:23.890Z,51.20
2018-09-13T15:34:52.328Z,51.20
2018-09-13T15:37:20.837Z,50.20
2018-09-13T15:39:49.276Z,49.80
2018-09-13T15:42:17.763Z,48.40
2018-09-13T15:44:47.442Z,48.90
2018-09-13T15:47:15.954Z,48.50
2018-09-13T15:49:44.393Z,49.40
2018-09-13T15:52:12.896Z,49.70
2018-09-13T15:54:41.426Z,48.70
2018-09-13T15:57:10.050Z,48.20
2018-09-13T15:59:38.708Z,49.30
2018-09-13T16:02:07.128Z,48.90
2018-09-13T16:04:35.561Z,49.10
2018-09-13T16:07:04.248Z,49.00
2018-09-13T16:09:33.076Z,48.80
2018-09-13T16:12:01.710Z,47.00
2018-09-13T16:14:30.799Z,47.50
2018-09-13T16:16:59.494Z,48.50
2018-09-13T16:19:28.033Z,48.10
2018-09-13T16:21:56.489Z,48.40
2018-09-13T16:24:24.982Z,48.80
2018-09-13T16:26:53.461Z,47.50
2018-09-13T16:29:22.005Z,48.80
2018-09-13T16:31:50.652Z,48.60
2018-09-13T16:34:19.695Z,51.20
2018-09-13T16:36:53.489Z,53.30
2018-09-13T16:39:28.014Z,50.60
2018-09-13T16:42:01.987Z,52.00
2018-09-13T16:44:35.799Z,52.80
2018-09-13T16:47:09.669Z,52.40
2018-09-13T16:49:39.756Z,55.20
2018-09-13T16:52:08.310Z,55.50
2018-09-13T16:54:37.096Z,58.40
2018-09-13T16:57:05.645Z,54.50
2018-09-13T16:59:34.190Z,54.40
2018-09-13T17:02:02.734Z,53.30
2018-09-13T17:04:31.257Z,51.70
2018-09-13T17:06:59.773Z,52.50
2018-09-13T17:09:28.394Z,56.60
2018-09-13T17:11:56.996Z,53.30
2018-09-13T17:14:25.499Z,52.60
2018-09-13T17:16:54.042Z,54.60
2018-09-13T17:19:22.562Z,54.40
2018-09-13T17:21:51.241Z,58.40
2018-09-13T17:24:20.232Z,56.00
2018-09-13T17:26:48.680Z,58.80
2018-09-13T17:29:17.082Z,59.40
2018-09-13T17:31:45.751Z,59.50
2018-09-13T17:34:14.158Z,62.00
2018-09-13T17:36:42.699Z,62.30
2018-09-13T17:39:12.781Z,63.00
2018-09-13T17:41:41.589Z,64.10
2018-09-13T17:44:10.074Z,62.90
2018-09-13T17:46:39.170Z,62.50
2018-09-13T17:49:07.741Z,62.80
2018-09-13T17:51:37.685Z,63.20
2018-09-13T17:54:06.297Z,62.80
2018-09-13T17:56:34.781Z,63.90
2018-09-13T17:59:03.203Z,64.00
2018-09-13T18:01:31.723Z,63.40
2018-09-13T18:04:00.233Z,63.40
2018-09-13T18:06:28.792Z,64.40
2018-09-13T18:08:57.274Z,64.20
2018-09-13T18:11:25.756Z,65.40
2018-09-13T18:13:54.217Z,65.60
2018-09-13T18:16:22.692Z,66.60
2018-09-13T18:18:51.091Z,65.40
2018-09-13T18:21:19.500Z,65.30
2018-09-13T18:23:47.874Z,65.30
2018-09-13T18:26:16.293Z,65.70
2018-09-13T18:28:44.717Z,66.70
2018-09-13T18:31:13.168Z,65.70
2018-09-13T18:33:41.637Z,66.80
2018-09-13T18:36:10.017Z,67.20
2018-09-13T18:38:38.485Z,67.40
2018-09-13T18:41:06.946Z,66.90
2018-09-13T18:43:35.556Z,68.30
2018-09-13T18:46:04.103Z,67.90
2018-09-13T18:48:32.672Z,67.90
2018-09-13T18:51:01.161Z,67.30
2018-09-13T18:53:29.605Z,68.20
2018-09-13T18:55:58.137Z,69.30
2018-09-13T18:58:26.674Z,68.50
2018-09-13T19:00:55.126Z,68.80
2018-09-13T19:03:23.600Z,69.20
2018-09-13T19:05:51.998Z,68.60
2018-09-13T19:08:20.440Z,69.60
2018-09-13T19:10:48.914Z,70.00
2018-09-13T19:13:17.384Z,70.40
2018-09-13T19:15:45.854Z,70.60
2018-09-13T19:18:14.341Z,69.10
2018-09-13T19:20:42.907Z,69.60
2018-09-13T19:23:11.436Z,70.10
2018-09-13T19:25:40.217Z,69.40
2018-09-13T19:28:12.481Z,68.80
2018-09-13T19:30:40.944Z,69.10
2018-09-13T19:33:09.448Z,70.70
2018-09-13T19:35:37.812Z,71.80
2018-09-13T19:38:06.383Z,71.50
2018-09-13T19:40:34.886Z,71.00
2018-09-13T19:43:03.296Z,72.20
2018-09-13T19:45:31.724Z,71.50
2018-09-13T19:48:00.168Z,72.20
2018-09-13T19:50:28.996Z,72.20
2018-09-13T19:52:57.437Z,72.00
2018-09-13T19:55:25.982Z,71.80
2018-09-13T19:57:54.512Z,71.80
2018-09-13T20:00:22.941Z,72.60
2018-09-13T20:02:51.384Z,72.50
2018-09-13T20:05:19.885Z,72.90
2018-09-13T20:07:48.334Z,72.70
2018-09-13T20:10:16.797Z,73.70
2018-09-13T20:12:45.313Z,72.90
2018-09-13T20:15:13.944Z,72.80
2018-09-13T20:17:42.557Z,74.00
2018-09-13T20:20:10.880Z,73.70
2018-09-13T20:22:39.265Z,74.30
2018-09-13T20:25:07.900Z,73.50
2018-09-13T20:27:36.548Z,74.00
2018-09-13T20:30:05.592Z,74.50
2018-09-13T20:32:34.145Z,74.70
2018-09-13T20:35:02.568Z,75.60
2018-09-13T20:37:31.057Z,75.00
2018-09-13T20:39:59.566Z,74.90
2018-09-13T20:42:28.050Z,74.20
2018-09-13T20:44:56.550Z,75.10
2018-09-13T20:47:25.024Z,75.50
2018-09-13T20:49:54.192Z,75.50
2018-09-13T20:52:22.584Z,75.10
2018-09-13T20:54:51.991Z,74.70
2018-09-13T20:57:20.474Z,76.00
2018-09-13T20:59:48.884Z,75.60
2018-09-13T21:02:17.245Z,75.90
2018-09-13T21:04:45.908Z,76.20
2018-09-13T21:07:14.296Z,76.20
2018-09-13T21:09:42.714Z,77.10
2018-09-13T21:12:11.240Z,77.10
2018-09-13T21:14:39.652Z,76.70
2018-09-13T21:17:08.136Z,76.90
2018-09-13T21:19:36.524Z,76.90
2018-09-13T21:22:05.264Z,76.60
2018-09-13T21:24:33.882Z,77.90
2018-09-13T21:27:02.249Z,77.00
2018-09-13T21:29:30.672Z,77.00
2018-09-13T21:31:59.113Z,77.70
2018-09-13T21:34:27.476Z,78.10
2018-09-13T21:36:56.080Z,77.70
2018-09-13T21:39:25.492Z,77.60
2018-09-13T21:41:53.929Z,78.00
2018-09-13T21:44:22.573Z,77.30
2018-09-13T21:46:50.995Z,78.50
2018-09-13T21:49:19.788Z,78.30
2018-09-13T21:51:48.143Z,78.00
2018-09-13T21:54:16.561Z,78.30
2018-09-13T21:56:45.140Z,78.20
2018-09-13T21:59:13.632Z,78.30
2018-09-13T22:01:42.174Z,78.40
2018-09-13T22:04:10.730Z,78.00
2018-09-13T22:06:39.317Z,78.60
2018-09-13T22:09:10.002Z,77.50
2018-09-13T22:11:40.096Z,78.80
2018-09-13T22:14:08.565Z,79.40
2018-09-13T22:16:36.997Z,78.80
2018-09-13T22:19:05.530Z,79.50
2018-09-13T22:21:34.441Z,79.10
2018-09-13T22:24:03.465Z,79.30
2018-09-13T22:26:32.013Z,79.50
2018-09-13T22:29:00.476Z,78.60
2018-09-13T22:31:28.881Z,78.80
2018-09-13T22:33:57.284Z,79.30
2018-09-13T22:36:25.753Z,79.80
2018-09-13T22:38:54.296Z,78.60
2018-09-13T22:41:22.778Z,80.20
2018-09-13T22:43:52.229Z,79.00
2018-09-13T22:46:22.671Z,79.80
2018-09-13T22:48:51.242Z,79.80
2018-09-13T22:51:20.297Z,80.10
2018-09-13T22:53:48.724Z,79.00
2018-09-13T22:56:17.112Z,79.60
2018-09-13T22:58:45.710Z,79.20
2018-09-13T23:01:14.129Z,79.30
2018-09-13T23:03:42.590Z,79.70
2018-09-13T23:06:11.033Z,80.80
2018-09-13T23:08:39.665Z,80.00
2018-09-13T23:11:08.103Z,79.00
2018-09-13T23:13:36.593Z,79.60
2018-09-13T23:16:05.212Z,79.30
2018-09-13T23:18:33.621Z,78.90
2018-09-13T23:21:02.096Z,79.70
2018-09-13T23:23:30.565Z,80.10
2018-09-13T23:25:58.929Z,80.10
2018-09-13T23:28:27.398Z,79.70
2018-09-13T23:30:57.140Z,80.20
2018-09-13T23:33:25.614Z,80.50
2018-09-13T23:35:54.201Z,80.40
2018-09-13T23:38:22.626Z,80.60
2018-09-13T23:40:51.131Z,79.70
2018-09-13T23:43:19.538Z,79.30
2018-09-13T23:45:48.020Z,80.40
2018-09-13T23:48:16.503Z,80.10
2018-09-13T23:50:44.978Z,79.90
2018-09-13T23:53:13.534Z,80.50
2018-09-13T23:55:42.095Z,79.60
2018-09-13T23:58:10.344Z,80.30
